Terminal Aerodrome Forecast
Issued by NWS

Current Version | Previous Version | Graphics & Text | Print | Product List | Glossary On
Versions: 1 2 3 4 5 6 7 8 9 10 11 12 13 14 15 16 17 18 19 20
986
FTUS41 KRLX 212320
TAFCKB
TAF
KCKB 212320Z 2200/2224 30005KT P6SM SCT150
     FM220700 01006KT P6SM VCSH OVC040
     FM221100 01006KT 6SM SHRA OVC025
     FM222000 01005KT 6SM SHRA OVC040=

USA.gov is the U.S. government's official web portal to all federal, state and local government web resources and services.